Time;durP1;ratioP1;P1;durP2;ratioP2;P2;SDS_P1;SDS_P2;PMS_P1;PMS_P2;Temp;Humidity;BMP_temperature;BMP_pressure;BME280_temperature;BME280_humidity;BME280_pressure;Samples;Min_cycle;Max_cycle;Signal;HPM_P1;HPM_P2
2023/07/13 00:00:47;;;;;;;;;;;;;;;13.31;40.17;95533.75;5019748;28;20094;-76
2023/07/13 00:03:13;;;;;;;;;;;;;;;13.00;40.74;95540.38;5021135;28;19925;-74
2023/07/13 00:05:38;;;;;;;;;;;;;;;13.46;40.82;95544.31;5020728;28;19943;-73
2023/07/13 00:08:04;;;;;;;;;;;;;;;13.57;39.72;95546.44;5021295;28;20416;-75
2023/07/13 00:10:29;;;;;;;;;;;;;;;12.97;40.97;95532.69;5018519;28;19979;-72
2023/07/13 00:12:55;;;;;;;;;;;;;;;13.31;40.05;95529.25;5021151;28;20039;-74
2023/07/13 00:15:22;;;;;;;;;;;;;;;12.66;41.32;95543.59;5037034;28;20000;-73
2023/07/13 00:17:54;;;;;;;;;;;;;;;12.90;40.66;95544.19;5020909;28;19934;-75
2023/07/13 00:20:21;;;;;;;;;;;;;;;12.36;41.69;95542.91;5020703;28;20011;-75
2023/07/13 00:22:47;;;;;;;;;;;;;;;12.67;41.53;95539.06;5021301;28;19927;-75
2023/07/13 00:25:12;;;;;;;;;;;;;;;12.80;41.15;95530.34;5020124;28;20094;-72
2023/07/13 00:27:37;;;;;;;;;;;;;;;12.50;41.53;95534.00;5020577;28;20420;-73
2023/07/13 00:30:03;;;;;;;;;;;;;;;12.41;41.90;95529.81;5022303;28;19939;-75
2023/07/13 00:32:29;;;;;;;;;;;;;;;11.86;42.75;95530.25;5020270;28;20433;-73
2023/07/13 00:34:54;;;;;;;;;;;;;;;12.10;42.32;95533.63;5022327;28;19971;-73
2023/07/13 00:37:20;;;;;;;;;;;;;;;12.15;42.25;95526.72;5020118;28;20403;-75
2023/07/13 00:39:45;;;;;;;;;;;;;;;12.25;41.96;95530.91;5021079;28;19953;-75
2023/07/13 00:42:11;;;;;;;;;;;;;;;12.25;41.97;95531.75;5020803;28;20160;-75
2023/07/13 00:44:36;;;;;;;;;;;;;;;12.44;41.39;95531.28;5021187;28;20031;-73
2023/07/13 00:47:01;;;;;;;;;;;;;;;12.53;41.05;95527.44;5021651;28;19963;-75
2023/07/13 00:49:27;;;;;;;;;;;;;;;12.58;41.12;95534.88;5021505;28;19959;-76
2023/07/13 00:51:57;;;;;;;;;;;;;;;12.69;40.79;95522.84;5020304;28;19963;-75
2023/07/13 00:54:41;;;;;;;;;;;;;;;12.40;41.38;95531.66;5021349;28;20463;-73
2023/07/13 00:57:07;;;;;;;;;;;;;;;12.60;40.95;95533.66;5017224;28;19960;-73
2023/07/13 00:59:33;;;;;;;;;;;;;;;12.32;41.39;95530.97;5019242;28;20368;-73
2023/07/13 01:01:58;;;;;;;;;;;;;;;12.56;40.98;95532.41;5020100;28;22986;-73
2023/07/13 01:04:24;;;;;;;;;;;;;;;12.38;41.65;95530.22;5020645;28;20398;-73
2023/07/13 01:06:49;;;;;;;;;;;;;;;12.39;41.52;95532.69;5019373;28;20164;-73
2023/07/13 01:09:15;;;;;;;;;;;;;;;12.31;41.50;95531.97;5021896;28;20219;-75
2023/07/13 01:11:41;;;;;;;;;;;;;;;12.34;41.43;95529.75;5019774;28;19951;-74
2023/07/13 01:14:06;;;;;;;;;;;;;;;12.12;42.06;95532.44;5021755;28;19951;-75
2023/07/13 01:16:32;;;;;;;;;;;;;;;12.21;42.00;95540.31;5020533;28;20304;-74
2023/07/13 01:18:58;;;;;;;;;;;;;;;12.18;42.03;95535.34;5019531;28;20002;-74
2023/07/13 01:21:24;;;;;;;;;;;;;;;11.99;42.15;95540.25;5019872;28;19917;-75
2023/07/13 01:23:49;;;;;;;;;;;;;;;11.93;42.40;95533.03;5019014;28;19963;-75
2023/07/13 01:26:14;;;;;;;;;;;;;;;11.89;42.33;95532.56;5019622;28;19937;-72
2023/07/13 01:28:39;;;;;;;;;;;;;;;11.72;42.72;95526.63;5019245;28;19972;-75
2023/07/13 01:31:05;;;;;;;;;;;;;;;11.68;42.95;95525.34;5021445;28;19960;-75
2023/07/13 01:33:30;;;;;;;;;;;;;;;11.79;42.63;95524.03;5021145;28;20410;-72
2023/07/13 01:35:57;;;;;;;;;;;;;;;12.02;42.31;95519.38;5003201;28;20008;-73
2023/07/13 01:38:22;;;;;;;;;;;;;;;11.83;42.55;95523.47;5019055;28;20303;-72
2023/07/13 01:40:48;;;;;;;;;;;;;;;11.70;42.94;95513.47;5036290;28;19959;-76
2023/07/13 01:43:13;;;;;;;;;;;;;;;11.68;42.91;95514.66;5019995;28;19945;-73
2023/07/13 01:45:38;;;;;;;;;;;;;;;11.85;42.77;95517.94;5001391;28;19968;-73
2023/07/13 01:48:06;;;;;;;;;;;;;;;11.74;42.96;95514.78;5019721;28;19967;-74
2023/07/13 01:50:31;;;;;;;;;;;;;;;11.74;42.76;95514.78;5021650;28;19932;-75
2023/07/13 01:52:56;;;;;;;;;;;;;;;11.82;42.71;95508.47;5020209;28;20489;-74
2023/07/13 01:55:22;;;;;;;;;;;;;;;11.77;42.82;95513.56;5021026;28;19987;-73
2023/07/13 01:57:47;;;;;;;;;;;;;;;11.86;42.56;95514.25;5021450;28;19935;-74
2023/07/13 02:00:13;;;;;;;;;;;;;;;11.87;42.61;95518.59;5020509;28;19956;-72
2023/07/13 02:02:38;;;;;;;;;;;;;;;11.86;42.47;95516.91;5019823;28;20074;-72
2023/07/13 02:05:04;;;;;;;;;;;;;;;11.77;42.69;95516.22;5017256;28;20431;-75
2023/07/13 02:07:29;;;;;;;;;;;;;;;11.71;42.87;95520.47;5018193;28;19961;-75
2023/07/13 02:09:54;;;;;;;;;;;;;;;11.82;42.86;95520.97;5020733;28;19924;-73
2023/07/13 02:12:19;;;;;;;;;;;;;;;11.77;42.98;95511.69;5020693;28;19966;-74
2023/07/13 02:14:45;;;;;;;;;;;;;;;11.88;43.55;95520.25;5020919;28;20086;-75
2023/07/13 02:17:10;;;;;;;;;;;;;;;12.10;44.43;95518.44;5020882;28;19967;-73
2023/07/13 02:19:36;;;;;;;;;;;;;;;12.28;45.19;95522.53;5020820;28;19913;-73
2023/07/13 02:22:01;;;;;;;;;;;;;;;12.40;46.47;95526.31;5018428;28;19970;-73
2023/07/13 02:24:27;;;;;;;;;;;;;;;12.42;46.65;95524.28;5019013;28;20200;-75
2023/07/13 02:26:52;;;;;;;;;;;;;;;12.37;46.89;95526.69;5021518;28;20410;-75
2023/07/13 02:29:17;;;;;;;;;;;;;;;12.32;44.93;95531.78;5020865;28;19961;-74
2023/07/13 02:31:43;;;;;;;;;;;;;;;12.30;46.70;95533.81;5035616;28;19983;-75
2023/07/13 02:34:08;;;;;;;;;;;;;;;12.25;45.67;95531.75;5020364;28;19959;-73
2023/07/13 02:36:33;;;;;;;;;;;;;;;12.17;46.00;95531.03;5020091;28;19979;-75
2023/07/13 02:38:59;;;;;;;;;;;;;;;12.14;47.59;95534.91;5023160;28;19975;-74
2023/07/13 02:41:25;;;;;;;;;;;;;;;12.15;45.88;95526.72;5022957;28;19964;-75
2023/07/13 02:43:50;;;;;;;;;;;;;;;12.21;44.07;95533.09;5023789;28;20009;-72
2023/07/13 02:46:15;;;;;;;;;;;;;;;12.28;46.60;95530.53;5024420;28;19928;-75
2023/07/13 02:48:40;;;;;;;;;;;;;;;12.20;44.12;95528.00;5023231;28;19941;-75
2023/07/13 02:51:06;;;;;;;;;;;;;;;12.12;44.90;95535.09;5022831;28;20398;-75
2023/07/13 02:53:31;;;;;;;;;;;;;;;12.14;46.59;95533.06;5024491;28;20017;-75
2023/07/13 02:55:57;;;;;;;;;;;;;;;12.16;47.20;95532.88;5023749;28;19978;-75
2023/07/13 02:58:22;;;;;;;;;;;;;;;12.18;46.94;95536.19;5021907;28;20392;-73
2023/07/13 03:00:47;;;;;;;;;;;;;;;12.19;46.44;95537.00;5021264;28;20600;-73
2023/07/13 03:03:13;;;;;;;;;;;;;;;12.22;47.38;95537.44;5022196;28;19941;-73
2023/07/13 03:05:40;;;;;;;;;;;;;;;12.22;46.73;95534.78;5021469;28;19917;-74
2023/07/13 03:08:06;;;;;;;;;;;;;;;12.21;45.48;95535.78;5022187;28;19990;-73
2023/07/13 03:10:31;;;;;;;;;;;;;;;12.09;43.68;95530.13;5022511;28;19965;-73
2023/07/13 03:12:56;;;;;;;;;;;;;;;11.98;44.80;95520.78;5038672;28;19920;-74
2023/07/13 03:15:21;;;;;;;;;;;;;;;11.73;42.90;95530.97;5036922;28;19956;-74
2023/07/13 03:17:47;;;;;;;;;;;;;;;11.56;43.01;95531.16;5022577;28;20073;-75
2023/07/13 03:20:13;;;;;;;;;;;;;;;11.58;43.09;95531.81;5023299;28;19961;-74
2023/07/13 03:22:38;;;;;;;;;;;;;;;11.44;43.75;95535.31;5022479;28;20408;-75
2023/07/13 03:25:04;;;;;;;;;;;;;;;11.43;44.09;95531.00;5021851;28;20108;-75
2023/07/13 03:27:29;;;;;;;;;;;;;;;11.42;44.41;95537.34;5020982;28;19921;-72
2023/07/13 03:29:54;;;;;;;;;;;;;;;11.45;44.11;95534.28;5037714;28;20367;-74
2023/07/13 03:32:19;;;;;;;;;;;;;;;11.45;43.58;95534.28;5022507;28;20258;-74
2023/07/13 03:34:45;;;;;;;;;;;;;;;11.45;43.38;95542.28;5023333;28;19975;-76
2023/07/13 03:37:10;;;;;;;;;;;;;;;11.32;43.96;95543.78;5022332;28;19960;-72
2023/07/13 03:39:35;;;;;;;;;;;;;;;11.41;43.49;95546.34;5023200;28;20004;-74
2023/07/13 03:42:00;;;;;;;;;;;;;;;11.44;43.54;95540.63;5023263;28;19917;-73
2023/07/13 03:44:25;;;;;;;;;;;;;;;11.37;43.50;95544.06;5022452;28;19952;-74
2023/07/13 03:46:51;;;;;;;;;;;;;;;11.68;42.74;95550.19;5022926;28;19924;-73
2023/07/13 03:49:16;;;;;;;;;;;;;;;11.54;43.12;95551.84;5022323;28;20401;-75
2023/07/13 03:51:41;;;;;;;;;;;;;;;11.56;43.17;95554.34;5021445;28;19928;-72
2023/07/13 03:54:06;;;;;;;;;;;;;;;11.52;43.98;95548.53;5022816;28;19998;-72
2023/07/13 03:56:32;;;;;;;;;;;;;;;11.66;43.30;95546.03;5021040;28;20004;-74
2023/07/13 03:58:58;;;;;;;;;;;;;;;11.85;42.94;95548.13;5020248;28;19921;-72
2023/07/13 04:01:24;;;;;;;;;;;;;;;11.86;44.41;95548.94;5019962;28;19935;-73
2023/07/13 04:03:49;;;;;;;;;;;;;;;11.99;44.91;95545.59;5021628;28;19979;-72
2023/07/13 04:06:20;;;;;;;;;;;;;;;12.12;43.14;95556.44;5022522;28;19917;-75
2023/07/13 04:08:46;;;;;;;;;;;;;;;12.28;42.14;95546.53;5020928;28;20366;-74
2023/07/13 04:11:11;;;;;;;;;;;;;;;12.25;42.33;95549.59;5020050;28;19921;-74
2023/07/13 04:13:36;;;;;;;;;;;;;;;12.45;42.06;95552.44;5021436;28;19960;-74
2023/07/13 04:16:01;;;;;;;;;;;;;;;12.46;43.19;95553.25;5022093;28;19921;-74
2023/07/13 04:18:27;;;;;;;;;;;;;;;12.37;44.53;95558.72;5022799;28;20356;-76
2023/07/13 04:20:52;;;;;;;;;;;;;;;12.54;43.02;95555.78;5022117;28;20013;-75
2023/07/13 04:23:17;;;;;;;;;;;;;;;12.75;42.71;95552.28;5021401;28;19928;-76
2023/07/13 04:25:46;;;;;;;;;;;;;;;12.67;41.93;95558.59;5022334;28;20341;-73
2023/07/13 04:28:11;;;;;;;;;;;;;;;12.72;41.74;95559.84;5021815;28;20003;-74
2023/07/13 04:30:36;;;;;;;;;;;;;;;12.86;42.47;95561.63;5021789;28;20409;-75
2023/07/13 04:33:02;;;;;;;;;;;;;;;12.91;41.65;95561.84;5021520;28;19925;-74
2023/07/13 04:35:27;;;;;;;;;;;;;;;12.90;43.59;95560.22;5020807;28;19921;-74
2023/07/13 04:37:53;;;;;;;;;;;;;;;12.98;43.75;95569.09;5022765;28;19969;-74
2023/07/13 04:40:18;;;;;;;;;;;;;;;13.03;42.86;95569.38;5021901;28;19921;-75
2023/07/13 04:42:44;;;;;;;;;;;;;;;13.11;41.86;95566.53;5020635;28;19917;-75
2023/07/13 04:45:09;;;;;;;;;;;;;;;13.11;41.43;95568.38;5021149;28;20034;-73
2023/07/13 04:47:34;;;;;;;;;;;;;;;13.18;41.70;95559.41;5021763;28;20012;-75
2023/07/13 04:50:00;;;;;;;;;;;;;;;13.29;41.53;95570.53;5022817;28;19917;-75
2023/07/13 04:52:25;;;;;;;;;;;;;;;13.25;41.29;95567.44;5021110;28;19936;-74
2023/07/13 04:54:50;;;;;;;;;;;;;;;13.41;40.69;95566.31;5022431;28;20388;-75
2023/07/13 04:57:15;;;;;;;;;;;;;;;13.45;40.14;95572.09;5021559;28;19921;-75
2023/07/13 04:59:41;;;;;;;;;;;;;;;13.43;40.25;95571.47;5019194;28;20270;-74
2023/07/13 05:02:06;;;;;;;;;;;;;;;13.69;39.83;95567.25;5019895;28;20071;-75
2023/07/13 05:04:31;;;;;;;;;;;;;;;13.69;39.64;95573.44;5018419;28;19966;-75
2023/07/13 05:06:57;;;;;;;;;;;;;;;13.76;39.69;95572.63;5022353;28;20026;-76
2023/07/13 05:09:22;;;;;;;;;;;;;;;13.68;39.93;95571.81;5021461;28;19921;-74
2023/07/13 05:11:47;;;;;;;;;;;;;;;13.64;39.93;95573.22;5021012;28;20072;-75
2023/07/13 05:14:12;;;;;;;;;;;;;;;13.75;40.11;95579.03;5019118;28;19975;-74
2023/07/13 05:16:38;;;;;;;;;;;;;;;13.81;39.54;95579.03;5021269;28;19955;-75
2023/07/13 05:19:03;;;;;;;;;;;;;;;13.50;40.37;95574.19;5022833;28;19974;-75
2023/07/13 05:21:28;;;;;;;;;;;;;;;13.78;39.80;95575.94;5021617;28;20011;-74
2023/07/13 05:23:53;;;;;;;;;;;;;;;13.80;39.79;95576.56;5021425;28;19921;-74
2023/07/13 05:26:20;;;;;;;;;;;;;;;13.90;39.56;95574.38;5022101;28;19955;-76
2023/07/13 05:28:45;;;;;;;;;;;;;;;13.51;40.21;95575.81;5035962;28;20031;-73
2023/07/13 05:31:10;;;;;;;;;;;;;;;13.29;41.33;95581.25;5018629;28;20459;-67
2023/07/13 05:33:36;;;;;;;;;;;;;;;13.34;40.73;95586.00;5018092;28;20329;-67
2023/07/13 05:36:01;;;;;;;;;;;;;;;13.26;41.26;95584.34;5015753;28;20428;-67
2023/07/13 05:38:26;;;;;;;;;;;;;;;13.27;41.70;95584.13;5018204;28;19982;-67
2023/07/13 05:40:52;;;;;;;;;;;;;;;12.75;42.67;95584.31;5019677;28;20479;-68
2023/07/13 05:43:18;;;;;;;;;;;;;;;11.66;44.67;95586.84;5017652;28;19984;-68
2023/07/13 05:45:43;;;;;;;;;;;;;;;11.54;46.11;95591.00;5019489;28;20366;-68
2023/07/13 05:48:08;;;;;;;;;;;;;;;11.79;45.92;95586.19;5020904;28;20053;-68
2023/07/13 05:50:33;;;;;;;;;;;;;;;11.22;46.31;95596.53;5018099;28;20067;-68
2023/07/13 05:52:59;;;;;;;;;;;;;;;11.78;45.47;95595.22;5020552;28;19949;-68
2023/07/13 05:55:24;;;;;;;;;;;;;;;11.43;45.87;95595.81;5020099;28;20222;-68
2023/07/13 05:57:49;;;;;;;;;;;;;;;10.79;47.93;95600.56;5016010;28;19977;-67
2023/07/13 06:00:15;;;;;;;;;;;;;;;10.62;48.18;95603.34;5016866;28;20585;-67
2023/07/13 06:02:40;;;;;;;;;;;;;;;10.82;48.34;95608.19;5015025;28;20046;-68
2023/07/13 06:05:05;;;;;;;;;;;;;;;10.60;48.57;95624.00;5014955;28;20008;-68
2023/07/13 06:07:30;;;;;;;;;;;;;;;10.80;48.51;95612.88;5018437;28;20007;-68
2023/07/13 06:09:56;;;;;;;;;;;;;;;10.68;48.99;95611.63;5019693;28;19985;-68
2023/07/13 06:12:21;;;;;;;;;;;;;;;10.81;49.19;95611.84;5020662;28;20182;-67
2023/07/13 06:14:46;;;;;;;;;;;;;;;10.17;50.22;95618.31;5023657;28;19957;-68
2023/07/13 06:17:11;;;;;;;;;;;;;;;10.23;50.65;95615.75;5021767;28;19958;-68
2023/07/13 06:19:37;;;;;;;;;;;;;;;10.68;49.59;95617.78;5015405;28;20697;-68
2023/07/13 06:22:02;;;;;;;;;;;;;;;10.92;48.85;95623.94;5022179;28;19990;-67
2023/07/13 06:24:28;;;;;;;;;;;;;;;11.13;48.84;95615.25;5021756;28;19969;-68
2023/07/13 06:26:53;;;;;;;;;;;;;;;11.29;49.29;95625.94;5024525;28;20428;-68
2023/07/13 06:29:18;;;;;;;;;;;;;;;10.58;50.17;95623.34;5018694;28;19949;-68
2023/07/13 06:31:43;;;;;;;;;;;;;;;10.54;50.00;95635.34;5018642;28;19993;-68
2023/07/13 06:34:08;;;;;;;;;;;;;;;10.39;50.89;95626.47;5023427;28;20433;-68
2023/07/13 06:36:36;;;;;;;;;;;;;;;10.58;50.98;95627.84;5020008;28;19996;-68
2023/07/13 06:39:01;;;;;;;;;;;;;;;10.85;50.13;95623.78;5022808;28;19991;-68
2023/07/13 06:41:26;;;;;;;;;;;;;;;10.66;49.63;95634.94;5022773;28;19964;-68
2023/07/13 06:43:52;;;;;;;;;;;;;;;10.87;49.84;95632.44;5023956;28;19959;-68
2023/07/13 06:46:17;;;;;;;;;;;;;;;11.18;49.07;95625.38;5023019;28;19934;-68
2023/07/13 06:48:42;;;;;;;;;;;;;;;11.89;47.23;95629.41;5023727;28;20011;-67
2023/07/13 06:51:08;;;;;;;;;;;;;;;11.95;47.39;95637.69;5020644;28;19941;-68
2023/07/13 06:53:33;;;;;;;;;;;;;;;11.45;47.46;95622.25;5018588;28;19960;-68
2023/07/13 06:55:58;;;;;;;;;;;;;;;11.20;48.80;95641.19;5022361;28;19967;-68
2023/07/13 06:58:23;;;;;;;;;;;;;;;11.43;47.36;95634.94;5021278;28;19969;-67
2023/07/13 07:00:50;;;;;;;;;;;;;;;11.49;47.74;95642.22;5022111;28;19963;-68
2023/07/13 07:03:15;;;;;;;;;;;;;;;11.52;47.74;95637.34;5022270;28;19957;-67
2023/07/13 07:05:40;;;;;;;;;;;;;;;11.52;47.51;95639.19;5021651;28;19957;-68
2023/07/13 07:08:06;;;;;;;;;;;;;;;11.84;47.38;95631.84;5022703;28;20135;-68
2023/07/13 07:10:31;;;;;;;;;;;;;;;11.78;47.87;95635.22;5022639;28;19935;-67
2023/07/13 07:12:57;;;;;;;;;;;;;;;12.18;47.14;95636.75;5022063;28;19964;-68
2023/07/13 07:15:22;;;;;;;;;;;;;;;12.18;46.25;95647.44;5022763;28;19997;-68
2023/07/13 07:17:47;;;;;;;;;;;;;;;13.03;44.02;95649.53;5020498;28;20609;-68
2023/07/13 07:20:13;;;;;;;;;;;;;;;13.60;42.95;95652.19;5035340;28;19963;-68
2023/07/13 07:22:38;;;;;;;;;;;;;;;14.44;42.33;95646.84;5020490;28;20334;-68
2023/07/13 07:25:03;;;;;;;;;;;;;;;14.45;42.35;95651.16;5019942;28;19921;-68
2023/07/13 07:27:29;;;;;;;;;;;;;;;14.33;41.24;95648.25;5021895;28;20000;-68
2023/07/13 07:29:54;;;;;;;;;;;;;;;14.34;40.52;95646.38;5018387;28;20339;-68
2023/07/13 07:32:19;;;;;;;;;;;;;;;14.71;40.76;95652.25;5015537;28;20052;-68
2023/07/13 07:34:44;;;;;;;;;;;;;;;13.95;41.51;95644.19;5018864;28;19953;-68
2023/07/13 07:37:10;;;;;;;;;;;;;;;13.40;42.08;95646.72;5017928;28;20378;-68
2023/07/13 07:39:36;;;;;;;;;;;;;;;13.31;43.44;95652.22;5019927;28;19953;-68
2023/07/13 07:42:01;;;;;;;;;;;;;;;13.37;42.85;95655.97;5019424;28;19929;-68
2023/07/13 07:44:26;;;;;;;;;;;;;;;13.48;43.10;95656.44;5018424;28;20001;-68
2023/07/13 07:46:52;;;;;;;;;;;;;;;13.47;42.04;95654.78;5021588;28;19925;-68
2023/07/13 07:49:17;;;;;;;;;;;;;;;14.02;42.56;95648.75;5019571;28;19928;-68
2023/07/13 07:51:42;;;;;;;;;;;;;;;13.33;42.33;95660.06;5021706;28;19956;-68
2023/07/13 07:54:07;;;;;;;;;;;;;;;13.09;42.39;95655.97;5021956;28;20118;-68
2023/07/13 07:56:33;;;;;;;;;;;;;;;12.71;43.02;95659.72;5022496;28;20065;-68
2023/07/13 07:58:58;;;;;;;;;;;;;;;14.04;40.72;95657.41;5023056;28;20031;-68
2023/07/13 08:01:23;;;;;;;;;;;;;;;14.51;41.43;95660.25;5020402;28;19932;-68
2023/07/13 08:03:48;;;;;;;;;;;;;;;14.95;39.78;95657.25;5021697;28;19999;-68
2023/07/13 08:06:14;;;;;;;;;;;;;;;14.91;40.09;95664.88;5017101;28;19954;-68
2023/07/13 08:08:39;;;;;;;;;;;;;;;14.96;39.53;95658.91;5017078;28;19967;-68
2023/07/13 08:11:05;;;;;;;;;;;;;;;15.21;40.20;95660.97;5019882;28;19920;-68
2023/07/13 08:13:30;;;;;;;;;;;;;;;14.62;39.73;95658.00;5020490;28;19959;-68
2023/07/13 08:15:55;;;;;;;;;;;;;;;13.81;41.38;95658.50;5019304;28;20621;-68
2023/07/13 08:18:21;;;;;;;;;;;;;;;13.82;41.68;95660.16;5017501;28;20016;-68
2023/07/13 08:20:46;;;;;;;;;;;;;;;13.95;41.87;95654.06;5021211;28;20397;-68
2023/07/13 08:23:11;;;;;;;;;;;;;;;13.20;42.66;95660.78;5021591;28;20013;-68
2023/07/13 08:25:37;;;;;;;;;;;;;;;14.19;40.55;95647.38;5021350;28;19925;-68
2023/07/13 08:28:05;;;;;;;;;;;;;;;14.55;41.25;95658.00;5020281;28;20437;-68
2023/07/13 08:30:30;;;;;;;;;;;;;;;15.03;40.66;95657.03;5021921;28;19913;-68
2023/07/13 08:32:55;;;;;;;;;;;;;;;15.06;39.84;95671.91;5020641;28;19928;-68
2023/07/13 08:35:20;;;;;;;;;;;;;;;14.54;40.63;95659.84;5019188;28;20436;-68
2023/07/13 08:37:46;;;;;;;;;;;;;;;14.74;39.34;95666.28;5021231;28;19957;-68
2023/07/13 08:40:11;;;;;;;;;;;;;;;14.32;40.85;95665.31;5020987;28;19999;-68
2023/07/13 08:42:37;;;;;;;;;;;;;;;13.76;42.57;95669.78;5021859;28;19951;-68
2023/07/13 08:45:18;;;;;;;;;;;;;;;13.38;42.58;95670.16;5017800;28;19920;-68
2023/07/13 08:47:46;;;;;;;;;;;;;;;13.59;42.90;95658.56;5016668;28;20280;-68
2023/07/13 08:50:12;;;;;;;;;;;;;;;13.37;42.46;95660.50;5014740;28;20590;-68
2023/07/13 08:52:40;;;;;;;;;;;;;;;13.26;42.89;95669.88;5018745;28;19967;-72
2023/07/13 08:55:09;;;;;;;;;;;;;;;13.52;41.86;95665.72;5018849;28;20319;-72
2023/07/13 08:57:35;;;;;;;;;;;;;;;13.59;42.12;95661.25;5017080;28;19955;-72
2023/07/13 09:00:01;;;;;;;;;;;;;;;14.00;41.07;95664.19;5017096;28;19930;-72
2023/07/13 09:02:27;;;;;;;;;;;;;;;13.85;43.24;95678.50;5019057;28;19990;-72
2023/07/13 09:05:03;;;;;;;;;;;;;;;14.30;42.01;95663.88;5003801;28;20307;-72
2023/07/13 09:07:31;;;;;;;;;;;;;;;14.35;40.72;95666.81;5018500;28;19928;-72
2023/07/13 09:10:15;;;;;;;;;;;;;;;14.97;39.08;95664.06;5020457;28;19932;-72
2023/07/13 09:12:49;;;;;;;;;;;;;;;14.45;40.86;95663.75;5017966;28;19928;-72
2023/07/13 09:15:35;;;;;;;;;;;;;;;14.15;42.14;95667.56;5020336;28;19971;-71
2023/07/13 09:18:26;;;;;;;;;;;;;;;14.67;39.60;95669.75;5020407;28;19938;-70
2023/07/13 09:20:59;;;;;;;;;;;;;;;14.49;41.56;95659.63;5006213;28;20448;-68
2023/07/13 09:23:24;;;;;;;;;;;;;;;14.76;40.78;95670.44;5018742;28;20005;-69
2023/07/13 09:25:57;;;;;;;;;;;;;;;14.12;40.60;95659.91;5019458;28;19949;-69
2023/07/13 09:28:32;;;;;;;;;;;;;;;14.28;41.23;95652.56;5020738;28;19968;-70
2023/07/13 09:31:04;;;;;;;;;;;;;;;14.83;40.78;95662.41;5019254;28;20178;-67
2023/07/13 09:33:30;;;;;;;;;;;;;;;15.29;38.44;95657.25;5017491;28;19921;-68
2023/07/13 09:35:58;;;;;;;;;;;;;;;14.88;40.19;95664.44;5018094;28;19929;-68
2023/07/13 09:38:25;;;;;;;;;;;;;;;13.95;41.04;95664.78;5017065;28;19921;-69
2023/07/13 09:41:10;;;;;;;;;;;;;;;14.76;40.06;95662.41;5017790;28;19927;-68
2023/07/13 09:43:35;;;;;;;;;;;;;;;15.38;38.78;95671.28;5021128;28;20571;-68
2023/07/13 09:46:01;;;;;;;;;;;;;;;15.98;37.60;95659.66;5020309;28;19959;-76
2023/07/13 09:48:26;;;;;;;;;;;;;;;16.12;36.37;95669.28;5019334;28;20305;-75
2023/07/13 09:50:54;;;;;;;;;;;;;;;16.12;37.19;95673.84;5019606;28;19960;-76
2023/07/13 09:53:19;;;;;;;;;;;;;;;15.77;38.25;95688.38;5017355;28;19921;-75
2023/07/13 09:55:47;;;;;;;;;;;;;;;15.54;37.64;95673.53;5017984;28;19925;-76
2023/07/13 09:58:23;;;;;;;;;;;;;;;15.59;37.32;95681.81;5023174;28;19924;-74
2023/07/13 10:00:56;;;;;;;;;;;;;;;15.42;37.97;95686.75;5020275;28;19921;-75
2023/07/13 10:03:22;;;;;;;;;;;;;;;15.37;37.75;95683.88;5017324;28;20755;-76
2023/07/13 10:05:50;;;;;;;;;;;;;;;16.03;36.87;95673.25;5001783;28;19917;-75
2023/07/13 10:08:19;;;;;;;;;;;;;;;15.39;37.52;95670.25;5019175;28;19929;-74
2023/07/13 10:10:44;;;;;;;;;;;;;;;17.06;35.43;95675.22;5002176;28;20020;-75
2023/07/13 10:13:29;;;;;;;;;;;;;;;17.71;34.83;95684.00;5019104;28;19988;-76
2023/07/13 10:15:55;;;;;;;;;;;;;;;18.22;32.78;95656.16;5017210;28;19929;-75
2023/07/13 10:18:20;;;;;;;;;;;;;;;16.82;36.51;95671.47;4999951;28;19925;-69
2023/07/13 10:20:45;;;;;;;;;;;;;;;16.83;35.84;95678.50;5013995;28;19921;-69
2023/07/13 10:23:14;;;;;;;;;;;;;;;17.00;34.49;95663.47;5014656;28;19921;-69
2023/07/13 10:25:39;;;;;;;;;;;;;;;16.71;34.64;95660.38;5016133;28;19951;-69
2023/07/13 10:28:06;;;;;;;;;;;;;;;16.56;34.92;95678.66;5013709;28;20401;-70
2023/07/13 10:30:32;;;;;;;;;;;;;;;16.85;34.17;95679.91;5015084;28;19925;-70
2023/07/13 10:32:58;;;;;;;;;;;;;;;16.64;34.73;95673.84;5010931;28;19921;-71
2023/07/13 10:35:23;;;;;;;;;;;;;;;17.22;34.78;95668.50;5017947;28;19995;-69
2023/07/13 10:37:57;;;;;;;;;;;;;;;17.09;32.45;95676.63;5017546;28;20304;-69
2023/07/13 10:40:24;;;;;;;;;;;;;;;17.71;32.85;95673.25;5015252;28;20456;-69
2023/07/13 10:42:49;;;;;;;;;;;;;;;17.06;33.13;95677.91;5017020;28;20371;-69
2023/07/13 10:45:15;;;;;;;;;;;;;;;16.15;35.24;95688.72;5016538;28;19925;-69
2023/07/13 10:47:41;;;;;;;;;;;;;;;17.06;34.07;95677.09;5014295;28;19925;-69
2023/07/13 10:50:08;;;;;;;;;;;;;;;17.23;33.09;95678.22;5012671;28;20153;-69
2023/07/13 10:52:46;;;;;;;;;;;;;;;16.11;33.93;95682.91;5012939;28;19932;-69
2023/07/13 10:55:30;;;;;;;;;;;;;;;15.91;35.64;95694.53;5008977;28;19925;-69
2023/07/13 10:57:59;;;;;;;;;;;;;;;14.85;38.26;95701.38;5014223;28;19975;-69
2023/07/13 11:00:24;;;;;;;;;;;;;;;15.43;37.24;95690.28;5013214;28;20693;-69
2023/07/13 11:02:57;;;;;;;;;;;;;;;16.47;36.93;95684.28;5021006;28;19967;-69
2023/07/13 11:05:27;;;;;;;;;;;;;;;16.43;35.53;95680.38;5020179;28;20475;-70
2023/07/13 11:07:53;;;;;;;;;;;;;;;16.53;35.59;95690.66;5021237;28;19947;-69
2023/07/13 11:10:37;;;;;;;;;;;;;;;16.68;35.70;95693.03;5017556;28;19932;-69
2023/07/13 11:13:03;;;;;;;;;;;;;;;15.88;35.93;95695.00;5020392;28;19955;-68
2023/07/13 11:15:31;;;;;;;;;;;;;;;15.99;35.60;95691.66;5022435;28;20423;-68
2023/07/13 11:18:00;;;;;;;;;;;;;;;16.42;34.98;95699.38;5022472;28;19925;-68
2023/07/13 11:20:45;;;;;;;;;;;;;;;16.27;35.13;95689.69;5023390;28;20313;-68
2023/07/13 11:23:16;;;;;;;;;;;;;;;17.10;34.85;95692.56;5019048;28;19968;-68
2023/07/13 11:25:41;;;;;;;;;;;;;;;16.77;34.72;95689.06;5022213;28;20504;-75
2023/07/13 11:28:09;;;;;;;;;;;;;;;17.81;33.74;95688.88;5021639;28;19917;-75
2023/07/13 11:30:42;;;;;;;;;;;;;;;18.31;33.05;95682.56;5023493;28;19952;-75
2023/07/13 11:33:12;;;;;;;;;;;;;;;18.60;31.87;95686.59;5022104;28;20290;-74
2023/07/13 11:35:41;;;;;;;;;;;;;;;18.55;31.74;95701.56;5022494;28;20000;-75
2023/07/13 11:38:19;;;;;;;;;;;;;;;18.38;31.88;95698.66;5023207;28;19920;-74
2023/07/13 11:40:45;;;;;;;;;;;;;;;17.62;33.42;95701.50;5021731;28;20003;-74
2023/07/13 11:43:12;;;;;;;;;;;;;;;18.38;32.29;95703.22;5022008;28;19913;-74
2023/07/13 11:45:37;;;;;;;;;;;;;;;17.20;32.07;95700.19;5004870;28;20404;-74
2023/07/13 11:48:03;;;;;;;;;;;;;;;16.87;32.80;95691.25;5022964;28;19917;-74
2023/07/13 11:50:28;;;;;;;;;;;;;;;18.08;32.14;95693.22;5021713;28;19920;-75
2023/07/13 11:52:53;;;;;;;;;;;;;;;18.01;30.43;95687.88;5020740;28;20473;-74
2023/07/13 11:55:20;;;;;;;;;;;;;;;18.10;31.61;95697.31;5004268;28;19948;-75
2023/07/13 11:57:47;;;;;;;;;;;;;;;16.36;33.45;95728.72;5021784;28;19917;-74
2023/07/13 12:00:14;;;;;;;;;;;;;;;15.45;35.41;95718.53;5021065;28;20324;-73
2023/07/13 12:02:42;;;;;;;;;;;;;;;15.49;35.43;95710.88;5021342;28;19921;-74
2023/07/13 12:05:09;;;;;;;;;;;;;;;15.54;36.16;95711.09;5018318;28;19921;-75
2023/07/13 12:07:34;;;;;;;;;;;;;;;16.33;35.49;95707.66;5020597;28;19963;-74
2023/07/13 12:10:04;;;;;;;;;;;;;;;17.48;34.23;95709.72;5019625;28;20420;-74
2023/07/13 12:12:30;;;;;;;;;;;;;;;17.93;33.70;95702.47;5020887;28;19921;-75
2023/07/13 12:14:55;;;;;;;;;;;;;;;18.03;31.14;95701.97;5019225;28;19921;-74
2023/07/13 12:17:21;;;;;;;;;;;;;;;17.60;30.82;95706.28;5020938;28;20209;-75
2023/07/13 12:19:47;;;;;;;;;;;;;;;17.76;33.12;95713.81;5020203;28;20310;-74
2023/07/13 12:22:13;;;;;;;;;;;;;;;17.62;31.94;95701.50;5021316;28;19921;-75
2023/07/13 12:24:38;;;;;;;;;;;;;;;17.51;32.57;95709.25;5022056;28;19999;-75
2023/07/13 12:27:04;;;;;;;;;;;;;;;17.33;32.30;95717.28;5021081;28;20027;-75
2023/07/13 12:29:29;;;;;;;;;;;;;;;17.11;33.24;95707.72;5019974;28;19917;-73
2023/07/13 12:31:55;;;;;;;;;;;;;;;17.13;32.14;95710.16;5020999;28;20149;-74
2023/07/13 12:34:21;;;;;;;;;;;;;;;17.50;32.27;95713.00;5021640;28;19948;-74
2023/07/13 12:36:58;;;;;;;;;;;;;;;17.61;32.01;95716.00;5003586;28;19924;-74
2023/07/13 12:39:25;;;;;;;;;;;;;;;18.01;32.55;95729.13;5020598;28;19917;-75
2023/07/13 12:41:51;;;;;;;;;;;;;;;17.77;32.17;95714.59;5020412;28;20365;-74
2023/07/13 12:44:25;;;;;;;;;;;;;;;17.02;34.09;95719.72;5020304;28;20215;-74